Terminal Aerodrome Forecast
Issued by NWS Hastings, NE

Home | Current Version | Previous Version | Text Only | Print | Product List | Glossary On
Versions: 1 2 3 4 5 6 7 8 9 10 11 12 13 14 15 16 17 18 19 20 21 22 23 24
580
FTUS43 KGID 241738
TAFGRI
TAF
KGRI 241738Z 2418/2518 34005KT P6SM SCT035
     FM242000 21004KT P6SM FEW040
     FM250200 16006KT P6SM SKC
     FM251000 16009KT P6SM FEW200 WS010/19040KT
     FM251300 17012KT P6SM SCT200=

USA.gov is the U.S. government's official web portal to all federal, state and local government web resources and services.